Time;durP1;ratioP1;P1;durP2;ratioP2;P2;SDS_P1;SDS_P2;PMS_P1;PMS_P2;Temp;Humidity;BMP_temperature;BMP_pressure;BME280_temperature;BME280_humidity;BME280_pressure;Samples;Min_cycle;Max_cycle;Signal;HPM_P1;HPM_P2
2023/07/20 00:01:52;;;;;;;26.23;20.38;;;15.80;99.90;;;;;;5035416;28;20026;-73
2023/07/20 00:04:18;;;;;;;28.85;19.63;;;15.70;99.90;;;;;;5035361;28;20025;-73
2023/07/20 00:06:43;;;;;;;22.67;17.50;;;15.60;99.90;;;;;;5035394;28;20025;-73
2023/07/20 00:09:09;;;;;;;25.70;18.90;;;15.50;99.90;;;;;;5035755;28;20029;-73
2023/07/20 00:11:38;;;;;;;25.88;19.58;;;15.50;99.90;;;;;;5035658;28;20029;-73
2023/07/20 00:14:05;;;;;;;29.80;20.73;;;15.50;99.90;;;;;;5035309;28;20095;-73
2023/07/20 00:16:31;;;;;;;30.70;21.20;;;15.50;99.90;;;;;;5035580;28;20558;-73
2023/07/20 00:18:56;;;;;;;27.30;20.48;;;15.50;99.90;;;;;;5035095;28;20116;-73
2023/07/20 00:21:22;;;;;;;26.92;20.08;;;15.50;99.90;;;;;;5035060;28;20036;-73
2023/07/20 00:23:47;;;;;;;27.30;19.80;;;15.40;99.90;;;;;;5035185;28;20049;-73
2023/07/20 00:26:13;;;;;;;24.45;18.70;;;15.40;99.90;;;;;;5035351;28;20033;-73
2023/07/20 00:28:38;;;;;;;31.45;20.08;;;15.40;99.90;;;;;;5034882;28;20040;-73
2023/07/20 00:31:04;;;;;;;30.52;20.38;;;15.40;99.90;;;;;;5035178;28;20025;-73
2023/07/20 00:33:30;;;;;;;30.67;21.05;;;15.50;99.90;;;;;;5034878;28;20048;-73
2023/07/20 00:35:55;;;;;;;24.02;19.63;;;15.50;99.90;;;;;;5034845;28;20075;-74
2023/07/20 00:38:21;;;;;;;29.50;19.83;;;15.60;99.90;;;;;;5035267;28;20021;-73
2023/07/20 00:40:48;;;;;;;25.83;18.35;;;15.60;99.90;;;;;;5035166;28;20364;-73
2023/07/20 00:43:13;;;;;;;30.10;19.40;;;15.60;99.90;;;;;;5035054;28;20056;-73
2023/07/20 00:45:39;;;;;;;27.05;19.30;;;15.60;99.90;;;;;;5034798;28;20469;-73
2023/07/20 00:48:06;;;;;;;26.88;18.95;;;15.60;99.90;;;;;;5034974;28;20395;-73
2023/07/20 00:50:33;;;;;;;26.27;21.02;;;15.60;99.90;;;;;;5035007;28;20578;-73
2023/07/20 00:52:59;;;;;;;30.25;21.42;;;15.60;99.90;;;;;;5034467;28;20030;-73
2023/07/20 00:55:26;;;;;;;33.70;20.75;;;15.50;99.90;;;;;;5034858;28;20044;-73
2023/07/20 00:57:52;;;;;;;28.77;20.00;;;15.60;99.90;;;;;;5034801;28;20446;-73
2023/07/20 01:00:18;;;;;;;28.08;20.13;;;15.60;99.90;;;;;;5034842;28;20037;-73
2023/07/20 01:02:44;;;;;;;30.35;20.98;;;15.50;99.90;;;;;;5034733;28;20033;-73
2023/07/20 01:05:12;;;;;;;33.15;22.42;;;15.60;99.90;;;;;;5034502;28;20035;-72
2023/07/20 01:07:59;;;;;;;32.15;21.92;;;15.60;99.90;;;;;;5034280;28;20034;-73
2023/07/20 01:10:31;;;;;;;30.38;22.08;;;15.70;99.90;;;;;;5034560;28;20033;-73
2023/07/20 01:12:58;;;;;;;31.70;22.33;;;15.70;99.90;;;;;;5034130;28;20025;-73
2023/07/20 01:15:24;;;;;;;29.08;21.48;;;15.70;99.90;;;;;;5034510;28;20116;-73
2023/07/20 01:17:49;;;;;;;28.75;21.60;;;15.70;99.90;;;;;;5034384;28;20065;-73
2023/07/20 01:20:17;;;;;;;26.23;19.02;;;15.70;99.90;;;;;;5034419;28;20399;-73
2023/07/20 01:23:15;;;;;;;29.45;20.17;;;15.70;99.90;;;;;;5034339;28;20036;-73
2023/07/20 01:26:21;;;;;;;27.38;20.67;;;15.70;99.90;;;;;;5033746;28;20033;-73
2023/07/20 01:29:13;;;;;;;33.00;21.92;;;15.60;99.90;;;;;;5033646;28;20025;-73
2023/07/20 01:31:41;;;;;;;31.63;22.63;;;15.60;99.90;;;;;;5034012;28;20029;-73
2023/07/20 01:34:11;;;;;;;32.17;22.50;;;15.60;99.90;;;;;;5033695;28;20021;-73
2023/07/20 01:36:38;;;;;;;34.45;22.95;;;15.60;99.90;;;;;;5033677;28;20030;-73
2023/07/20 01:39:04;;;;;;;35.05;23.45;;;15.60;99.90;;;;;;5033545;28;20048;-73
2023/07/20 01:41:30;;;;;;;35.50;24.35;;;15.60;99.90;;;;;;5033760;28;20037;-73
2023/07/20 01:43:59;;;;;;;32.05;24.83;;;15.60;99.90;;;;;;5033874;28;20391;-73
2023/07/20 01:46:25;;;;;;;32.20;24.95;;;15.60;99.90;;;;;;5033896;28;20036;-73
2023/07/20 01:48:51;;;;;;;35.10;24.85;;;15.60;99.90;;;;;;5033908;28;20056;-74
2023/07/20 01:51:17;;;;;;;31.38;23.58;;;15.60;99.90;;;;;;5033359;28;20080;-73
2023/07/20 01:53:43;;;;;;;35.85;24.48;;;15.60;99.90;;;;;;5033593;28;20029;-73
2023/07/20 01:56:09;;;;;;;33.50;25.48;;;15.60;99.90;;;;;;5033653;28;20033;-73
2023/07/20 01:58:34;;;;;;;36.03;27.33;;;15.60;99.90;;;;;;5033610;28;20451;-73
2023/07/20 02:01:01;;;;;;;35.35;26.30;;;15.60;99.90;;;;;;5033489;28;20100;-73
2023/07/20 02:03:27;;;;;;;32.42;26.10;;;15.60;99.90;;;;;;5033561;28;20025;-73
2023/07/20 02:05:53;;;;;;;34.88;25.70;;;15.70;99.90;;;;;;5033058;28;20028;-73
2023/07/20 02:08:18;;;;;;;36.28;25.88;;;15.70;99.90;;;;;;5033613;28;20038;-73
2023/07/20 02:10:47;;;;;;;31.67;25.13;;;15.70;99.90;;;;;;5033056;28;20025;-73
2023/07/20 02:13:13;;;;;;;39.47;28.05;;;15.60;99.90;;;;;;5033512;28;20483;-73
2023/07/20 02:15:39;;;;;;;38.45;28.13;;;15.70;99.90;;;;;;5033610;28;20041;-73
2023/07/20 02:18:04;;;;;;;40.97;28.73;;;15.70;99.90;;;;;;5033301;28;20029;-73
2023/07/20 02:20:30;;;;;;;35.83;26.70;;;15.70;99.90;;;;;;5033334;28;20037;-73
2023/07/20 02:22:55;;;;;;;37.70;27.95;;;15.60;99.90;;;;;;5033386;28;20034;-73
2023/07/20 02:25:21;;;;;;;39.28;28.70;;;15.70;99.90;;;;;;5032845;28;20482;-73
2023/07/20 02:27:47;;;;;;;37.85;28.73;;;15.70;99.90;;;;;;5033326;28;20032;-73
2023/07/20 02:30:13;;;;;;;40.28;29.80;;;15.70;99.90;;;;;;5033183;28;20415;-73
2023/07/20 02:32:39;;;;;;;36.28;28.48;;;15.70;99.90;;;;;;5033193;28;20033;-73
2023/07/20 02:35:06;;;;;;;40.00;29.85;;;15.70;99.90;;;;;;5033306;28;20037;-73
2023/07/20 02:37:32;;;;;;;35.20;27.27;;;15.70;99.90;;;;;;5033252;28;20475;-73
2023/07/20 02:39:57;;;;;;;37.47;28.50;;;15.70;99.90;;;;;;5033050;28;20021;-73
2023/07/20 02:42:25;;;;;;;37.85;29.05;;;15.70;99.90;;;;;;5033205;28;20025;-73
2023/07/20 02:44:51;;;;;;;41.15;29.33;;;15.80;99.90;;;;;;5032754;28;20018;-73
2023/07/20 02:47:16;;;;;;;42.25;28.75;;;15.80;99.90;;;;;;5033154;28;20029;-73
2023/07/20 02:49:42;;;;;;;42.17;29.38;;;15.80;99.90;;;;;;5032880;28;20494;-73
2023/07/20 02:52:08;;;;;;;40.08;28.83;;;15.70;99.90;;;;;;5032863;28;20022;-73
2023/07/20 02:54:33;;;;;;;36.25;26.90;;;15.70;99.90;;;;;;5033055;28;20428;-73
2023/07/20 02:56:59;;;;;;;36.13;26.35;;;15.70;99.90;;;;;;5033037;28;20131;-73
2023/07/20 02:59:24;;;;;;;30.13;22.52;;;15.70;99.90;;;;;;5033056;28;20030;-73
2023/07/20 03:01:50;;;;;;;32.10;22.13;;;15.60;99.90;;;;;;5033065;28;20168;-73
2023/07/20 03:04:16;;;;;;;32.30;21.45;;;15.60;99.90;;;;;;5032900;28;20522;-73
2023/07/20 03:06:41;;;;;;;28.67;21.55;;;15.60;99.90;;;;;;5033801;28;20043;-73
2023/07/20 03:09:09;;;;;;;30.95;20.75;;;15.60;99.90;;;;;;5036705;28;20116;-73
2023/07/20 03:11:34;;;;;;;32.38;22.38;;;15.60;99.90;;;;;;5036694;28;20032;-73
2023/07/20 03:14:00;;;;;;;35.40;22.98;;;15.60;99.90;;;;;;5036327;28;20430;-74
2023/07/20 03:16:26;;;;;;;28.40;21.33;;;15.60;99.90;;;;;;5036700;28;20403;-73
2023/07/20 03:18:52;;;;;;;32.40;22.95;;;15.60;99.90;;;;;;5036298;28;20475;-73
2023/07/20 03:21:17;;;;;;;39.15;23.88;;;15.60;99.90;;;;;;5036647;28;20040;-73
2023/07/20 03:23:43;;;;;;;40.85;24.00;;;15.60;99.90;;;;;;5036463;28;20442;-73
2023/07/20 03:26:09;;;;;;;33.70;22.45;;;15.60;99.90;;;;;;5036024;28;20071;-73
2023/07/20 03:28:35;;;;;;;31.92;23.27;;;15.60;99.90;;;;;;5036013;28;20017;-73
2023/07/20 03:31:01;;;;;;;34.33;24.05;;;15.60;99.90;;;;;;5035986;28;20034;-73
2023/07/20 03:33:28;;;;;;;37.47;25.42;;;15.60;99.90;;;;;;5035946;28;20029;-73
2023/07/20 03:35:55;;;;;;;37.78;26.85;;;15.60;99.90;;;;;;5036335;28;20068;-73
2023/07/20 03:38:21;;;;;;;40.92;26.60;;;15.60;99.90;;;;;;5036283;28;20479;-73
2023/07/20 03:40:56;;;;;;;41.65;28.25;;;15.70;99.90;;;;;;5035883;28;20030;-73
2023/07/20 03:43:23;;;;;;;35.97;26.98;;;15.70;99.90;;;;;;5036229;28;20475;-73
2023/07/20 03:45:49;;;;;;;35.92;26.77;;;15.60;99.90;;;;;;5035780;28;20021;-73
2023/07/20 03:48:17;;;;;;;42.35;28.27;;;15.60;99.90;;;;;;5036086;28;20479;-73
2023/07/20 03:50:45;;;;;;;41.97;28.50;;;15.60;99.90;;;;;;5036158;28;20029;-73
2023/07/20 03:53:11;;;;;;;40.63;27.75;;;15.60;99.90;;;;;;5035918;28;20386;-73
2023/07/20 03:55:37;;;;;;;37.33;27.33;;;15.60;99.90;;;;;;5035906;28;20475;-73
2023/07/20 03:58:03;;;;;;;36.45;27.83;;;15.60;99.90;;;;;;5035817;28;20040;-73
2023/07/20 04:00:28;;;;;;;38.55;27.73;;;15.60;99.90;;;;;;5035804;28;20076;-73
2023/07/20 04:02:54;;;;;;;39.47;26.95;;;15.60;99.90;;;;;;5036168;28;20489;-74
2023/07/20 04:05:20;;;;;;;44.85;28.85;;;15.60;99.90;;;;;;5035506;28;20029;-74
2023/07/20 04:07:45;;;;;;;42.33;29.17;;;15.60;99.90;;;;;;5035723;28;20084;-73
2023/07/20 04:10:11;;;;;;;45.85;29.52;;;15.60;99.90;;;;;;5035637;28;20048;-74
2023/07/20 04:12:36;;;;;;;42.58;29.27;;;15.60;99.90;;;;;;5035602;28;20480;-73
2023/07/20 04:15:03;;;;;;;35.65;27.83;;;15.60;99.90;;;;;;5035520;28;20041;-73
2023/07/20 04:17:29;;;;;;;35.95;28.27;;;15.60;99.90;;;;;;5034803;28;20036;-74
2023/07/20 04:19:55;;;;;;;41.05;27.45;;;15.60;99.90;;;;;;5035363;28;20037;-73
2023/07/20 04:22:21;;;;;;;40.60;25.65;;;15.60;99.90;;;;;;5035476;28;20076;-74
2023/07/20 04:24:46;;;;;;;39.53;25.75;;;15.60;99.90;;;;;;5034767;28;20510;-74
2023/07/20 04:27:12;;;;;;;31.30;24.13;;;15.50;99.90;;;;;;5035337;28;20029;-73
2023/07/20 04:29:37;;;;;;;33.20;22.58;;;15.50;99.90;;;;;;5035244;28;20030;-73
2023/07/20 04:32:03;;;;;;;30.67;21.73;;;15.50;99.90;;;;;;5034828;28;20387;-74
2023/07/20 04:34:29;;;;;;;28.92;21.15;;;15.50;99.90;;;;;;5035193;28;20467;-74
2023/07/20 04:36:54;;;;;;;28.58;20.17;;;15.50;99.90;;;;;;5035229;28;20033;-74
2023/07/20 04:39:20;;;;;;;28.23;20.73;;;15.40;99.90;;;;;;5034853;28;20482;-74
2023/07/20 04:41:45;;;;;;;31.38;19.05;;;15.40;99.90;;;;;;5035220;28;20033;-74
2023/07/20 04:44:11;;;;;;;32.17;19.80;;;15.40;99.90;;;;;;5034734;28;20029;-73
2023/07/20 04:46:36;;;;;;;24.90;18.27;;;15.50;99.90;;;;;;5034980;28;20108;-74
2023/07/20 04:49:02;;;;;;;22.92;17.55;;;15.50;99.90;;;;;;5035001;28;20036;-74
2023/07/20 04:51:30;;;;;;;26.75;17.02;;;15.30;99.90;;;;;;5034576;28;20043;-73
2023/07/20 04:53:56;;;;;;;25.90;18.20;;;15.30;99.90;;;;;;5034890;28;20053;-73
2023/07/20 04:56:23;;;;;;;28.63;17.83;;;15.30;99.90;;;;;;5034789;28;20022;-74
2023/07/20 04:58:48;;;;;;;26.90;20.15;;;15.30;99.90;;;;;;5034956;28;20079;-74
2023/07/20 05:01:14;;;;;;;35.35;23.58;;;15.40;99.90;;;;;;5034898;28;20030;-74
2023/07/20 05:03:39;;;;;;;32.25;22.55;;;15.60;99.90;;;;;;5034681;28;20030;-74
2023/07/20 05:06:05;;;;;;;30.58;22.27;;;15.70;99.90;;;;;;5034581;28;20450;-73
2023/07/20 05:08:30;;;;;;;25.30;20.63;;;15.80;99.90;;;;;;5034210;28;20026;-74
2023/07/20 05:10:56;;;;;;;22.58;19.05;;;16.30;99.90;;;;;;5034604;28;20033;-75
2023/07/20 05:13:21;;;;;;;21.88;17.83;;;16.60;99.90;;;;;;5034228;28;20083;-74
2023/07/20 05:15:50;;;;;;;18.45;14.77;;;16.80;99.90;;;;;;5034571;28;20365;-74
2023/07/20 05:18:19;;;;;;;20.60;15.48;;;16.70;99.90;;;;;;5034353;28;20018;-74
2023/07/20 05:20:47;;;;;;;14.20;12.48;;;16.70;99.90;;;;;;5033959;28;20032;-74
2023/07/20 05:23:13;;;;;;;13.82;12.15;;;16.90;99.90;;;;;;5034161;28;20526;-74
2023/07/20 05:25:38;;;;;;;15.50;11.88;;;16.90;99.90;;;;;;5033923;28;20037;-74
2023/07/20 05:28:04;;;;;;;14.05;12.00;;;16.90;99.90;;;;;;5034193;28;20028;-74
2023/07/20 05:30:30;;;;;;;11.20;9.60;;;17.00;99.90;;;;;;5033502;28;20541;-74
2023/07/20 05:32:55;;;;;;;14.85;8.48;;;17.20;99.90;;;;;;5034041;28;20033;-74
2023/07/20 05:35:22;;;;;;;10.23;7.90;;;17.40;99.90;;;;;;5033972;28;20045;-74
2023/07/20 05:37:47;;;;;;;9.60;7.30;;;17.40;99.90;;;;;;5033696;28;20112;-74
2023/07/20 05:40:18;;;;;;;8.40;6.63;;;17.80;99.90;;;;;;5034100;28;20517;-74
2023/07/20 05:42:43;;;;;;;7.47;6.22;;;18.60;50.70;;;;;;5034044;28;20028;-74
2023/07/20 05:45:09;;;;;;;7.68;5.18;;;19.30;15.80;;;;;;5033359;28;20033;-74
2023/07/20 05:47:35;;;;;;;5.50;4.93;;;19.80;1.00;;;;;;5033476;28;20026;-74
2023/07/20 05:50:00;;;;;;;6.28;4.30;;;19.70;1.00;;;;;;5033425;28;20479;-75
2023/07/20 05:52:26;;;;;;;5.05;4.55;;;19.70;1.00;;;;;;5033421;28;20049;-72
2023/07/20 05:54:52;;;;;;;5.85;5.13;;;19.10;1.00;;;;;;5032531;28;20110;-74
2023/07/20 05:57:17;;;;;;;6.60;5.68;;;18.70;7.70;;;;;;5042898;28;20513;-74
2023/07/20 05:59:44;;;;;;;7.28;5.32;;;18.30;16.30;;;;;;5035870;28;20033;-74
2023/07/20 06:02:10;;;;;;;6.95;6.20;;;17.90;52.60;;;;;;5041836;28;20445;-74
2023/07/20 06:04:36;;;;;;;8.90;8.00;;;17.70;90.40;;;;;;5038920;28;20029;-74
2023/07/20 06:07:01;;;;;;;8.45;7.28;;;17.70;98.90;;;;;;5037196;28;20071;-74
2023/07/20 06:09:27;;;;;;;9.60;7.82;;;17.90;83.90;;;;;;5052082;28;20025;-74
2023/07/20 06:11:53;;;;;;;9.88;8.40;;;18.00;65.00;;;;;;5047721;28;20033;-74
2023/07/20 06:14:19;;;;;;;9.63;8.63;;;18.30;87.70;;;;;;5042967;28;20463;-74
2023/07/20 06:16:44;;;;;;;10.40;9.30;;;18.30;50.70;;;;;;5036809;28;20120;-74
2023/07/20 06:19:11;;;;;;;9.50;8.18;;;18.80;73.50;;;;;;5033431;28;20396;-74
2023/07/20 06:21:37;;;;;;;9.35;8.27;;;20.50;1.00;;;;;;5034299;28;20029;-74
2023/07/20 06:24:03;;;;;;;8.90;8.10;;;21.20;1.00;;;;;;5032102;28;20061;-74
2023/07/20 06:26:29;;;;;;;11.30;10.20;;;21.20;1.00;;;;;;5031854;28;20184;-74
2023/07/20 06:28:56;;;;;;;9.82;9.02;;;21.10;1.00;;;;;;5041976;28;20053;-74
2023/07/20 06:31:21;;;;;;;10.35;9.45;;;21.80;1.00;;;;;;5047205;28;20032;-74
2023/07/20 06:33:47;;;;;;;9.70;8.80;;;22.10;99.90;;;;;;5037485;28;20022;-74
2023/07/20 06:36:12;;;;;;;9.15;8.25;;;21.70;99.90;;;;;;5032622;28;20026;-75
2023/07/20 06:38:38;;;;;;;11.20;8.77;;;21.00;99.90;;;;;;5045070;28;20108;-75
2023/07/20 06:41:03;;;;;;;10.55;8.88;;;20.30;1.00;;;;;;5051276;28;20029;-74
2023/07/20 06:43:29;;;;;;;10.50;9.60;;;20.20;1.00;;;;;;5054175;28;20036;-74
2023/07/20 06:45:55;;;;;;;10.63;9.73;;;20.80;1.00;;;;;;5052984;28;20029;-74
2023/07/20 06:48:21;;;;;;;10.50;9.38;;;20.10;1.00;;;;;;5054965;28;20032;-74
2023/07/20 06:50:47;;;;;;;11.88;10.43;;;19.60;1.00;;;;;;5047519;28;20033;-74
2023/07/20 06:53:13;;;;;;;12.70;11.50;;;19.00;1.00;;;;;;5046414;28;20032;-74
2023/07/20 06:55:39;;;;;;;13.90;12.20;;;18.60;24.50;;;;;;5048847;28;20036;-74
2023/07/20 06:58:04;;;;;;;14.82;12.55;;;18.40;48.40;;;;;;5049928;28;20372;-74
2023/07/20 07:00:30;;;;;;;13.77;12.35;;;18.20;62.60;;;;;;5045899;28;20036;-74
2023/07/20 07:02:56;;;;;;;14.90;12.13;;;18.00;68.00;;;;;;5036069;28;20508;-72
2023/07/20 07:05:21;;;;;;;14.63;11.63;;;17.90;89.90;;;;;;5038222;28;20034;-73
2023/07/20 07:07:47;;;;;;;12.77;11.48;;;17.90;65.50;;;;;;5043847;28;20059;-72
2023/07/20 07:10:13;;;;;;;14.23;11.38;;;17.80;60.20;;;;;;5043835;28;20927;-73
2023/07/20 07:12:39;;;;;;;11.43;10.32;;;17.80;62.50;;;;;;5044235;28;20029;-73
2023/07/20 07:15:06;;;;;;;14.07;11.27;;;18.00;49.70;;;;;;5037839;28;20048;-73
2023/07/20 07:17:32;;;;;;;13.73;11.27;;;18.00;31.50;;;;;;5041258;28;20029;-73
2023/07/20 07:19:58;;;;;;;13.80;10.95;;;18.10;52.70;;;;;;5055775;28;20025;-73
2023/07/20 07:22:24;;;;;;;12.13;9.85;;;17.80;23.30;;;;;;5054788;28;20056;-73
2023/07/20 07:24:49;;;;;;;14.52;10.82;;;17.60;51.90;;;;;;5047436;28;20045;-74
2023/07/20 07:27:16;;;;;;;10.80;9.70;;;17.80;53.70;;;;;;5045581;28;20036;-73
2023/07/20 07:29:44;;;;;;;9.52;8.73;;;18.60;1.00;;;;;;5038073;28;20022;-73
2023/07/20 07:32:10;;;;;;;10.43;8.43;;;19.00;1.00;;;;;;5040128;28;20025;-73
2023/07/20 07:34:36;;;;;;;6.55;5.85;;;20.00;1.00;;;;;;5035662;28;20116;-73
2023/07/20 07:37:03;;;;;;;6.97;6.28;;;21.50;99.90;;;;;;5033145;28;20117;-73
2023/07/20 07:39:29;;;;;;;7.95;6.75;;;21.50;1.00;;;;;;5035712;28;20034;-73
2023/07/20 07:41:55;;;;;;;7.97;6.45;;;21.00;99.90;;;;;;5035900;28;20032;-74
2023/07/20 07:44:21;;;;;;;8.35;7.30;;;20.20;99.90;;;;;;5039979;28;20115;-74
2023/07/20 07:46:46;;;;;;;7.95;7.32;;;19.60;1.00;;;;;;5051283;28;20040;-73
2023/07/20 07:49:12;;;;;;;7.07;6.40;;;20.90;1.00;;;;;;5038417;28;20032;-73
2023/07/20 07:51:38;;;;;;;5.30;4.80;;;22.10;1.00;;;;;;5050288;28;20115;-73
2023/07/20 07:54:04;;;;;;;6.53;4.90;;;23.80;27.10;;;;;;5048617;28;20033;-74
2023/07/20 07:56:29;;;;;;;4.20;3.90;;;24.50;1.00;;;;;;5038852;28;20563;-73
2023/07/20 07:58:55;;;;;;;4.15;2.97;;;24.60;99.90;;;;;;5028982;28;20105;-72
2023/07/20 08:01:21;;;;;;;2.92;2.70;;;25.20;1.00;;;;;;5039244;28;20022;-72
2023/07/20 08:03:47;;;;;;;3.13;2.92;;;25.10;99.90;;;;;;5034438;28;20060;-71
2023/07/20 08:06:13;;;;;;;3.50;3.30;;;24.60;99.90;;;;;;5043346;28;20458;-72
2023/07/20 08:08:39;;;;;;;3.90;3.60;;;23.50;1.00;;;;;;5036169;28;20487;-72
2023/07/20 08:11:05;;;;;;;3.72;3.53;;;22.80;99.90;;;;;;5035968;28;20032;-72
2023/07/20 08:13:31;;;;;;;4.57;3.90;;;22.50;99.90;;;;;;5051538;28;20479;-72
2023/07/20 08:15:56;;;;;;;4.28;3.88;;;21.90;99.90;;;;;;5033970;28;20029;-73
2023/07/20 08:18:22;;;;;;;4.68;4.38;;;20.90;99.90;;;;;;5036798;28;20437;-72
2023/07/20 08:20:49;;;;;;;7.65;6.95;;;20.70;99.90;;;;;;5048625;28;20041;-73
2023/07/20 08:23:14;;;;;;;3.70;3.40;;;20.90;99.90;;;;;;5045793;28;20025;-73
2023/07/20 08:25:43;;;;;;;3.95;3.22;;;20.70;1.00;;;;;;5035918;28;20037;-73
2023/07/20 08:28:11;;;;;;;5.60;4.18;;;20.30;40.80;;;;;;5036671;28;20155;-72
2023/07/20 08:30:41;;;;;;;5.30;4.80;;;19.80;99.90;;;;;;5035581;28;20029;-72
2023/07/20 08:33:06;;;;;;;4.68;4.20;;;19.70;99.90;;;;;;5029297;28;20472;-72
2023/07/20 08:35:32;;;;;;;3.58;3.28;;;19.90;99.90;;;;;;5034907;28;20040;-72
2023/07/20 08:37:57;;;;;;;2.85;2.67;;;21.00;1.00;;;;;;5034634;28;20046;-73
2023/07/20 08:40:23;;;;;;;3.35;2.70;;;22.10;1.00;;;;;;5049408;28;20375;-73
2023/07/20 08:42:49;;;;;;;4.38;2.95;;;23.10;99.90;;;;;;5036170;28;20095;-73
2023/07/20 08:45:16;;;;;;;2.67;2.47;;;24.50;1.00;;;;;;5040252;28;20102;-73
2023/07/20 08:47:44;;;;;;;4.32;2.50;;;25.50;99.90;;;;;;5044218;28;20031;-73
2023/07/20 08:50:10;;;;;;;2.38;2.20;;;25.70;99.90;;;;;;5034348;28;20037;-73
2023/07/20 08:52:36;;;;;;;1.90;1.77;;;25.70;1.00;;;;;;5037741;28;20033;-73
2023/07/20 08:55:03;;;;;;;2.13;1.75;;;25.10;99.90;;;;;;5038030;28;20075;-73
2023/07/20 08:57:32;;;;;;;3.03;2.05;;;23.90;96.30;;;;;;5042585;28;20061;-74
2023/07/20 08:59:58;;;;;;;5.70;2.00;;;22.90;87.80;;;;;;5043702;28;20343;-73
2023/07/20 09:02:26;;;;;;;2.88;2.20;;;23.20;99.90;;;;;;5033586;28;20500;-73
2023/07/20 09:04:52;;;;;;;1.80;1.70;;;23.90;99.90;;;;;;5031255;28;20083;-73
2023/07/20 09:07:20;;;;;;;2.35;2.00;;;24.80;99.90;;;;;;5033858;28;20496;-73
2023/07/20 09:09:45;;;;;;;3.47;2.10;;;24.20;99.90;;;;;;5033015;28;20391;-75
2023/07/20 09:12:15;;;;;;;2.03;1.80;;;23.40;1.00;;;;;;5040492;28;20029;-75
2023/07/20 09:14:43;;;;;;;1.73;1.48;;;23.40;99.90;;;;;;5035831;28;20504;-77
2023/07/20 09:17:13;;;;;;;1.52;1.40;;;24.10;99.90;;;;;;5034506;28;20038;-75
2023/07/20 09:19:45;;;;;;;1.25;1.23;;;24.60;1.00;;;;;;5040398;28;20519;-75
2023/07/20 09:22:10;;;;;;;1.60;1.30;;;24.20;99.90;;;;;;5034481;28;20029;-77
2023/07/20 09:24:36;;;;;;;2.50;1.23;;;23.80;99.90;;;;;;5039578;28;20092;-75
2023/07/20 09:27:03;;;;;;;1.15;1.10;;;24.50;1.00;;;;;;5037220;28;20040;-76
2023/07/20 09:29:30;;;;;;;1.90;1.10;;;25.00;99.90;;;;;;5045254;28;20029;-75
2023/07/20 09:32:01;;;;;;;1.52;1.00;;;25.30;99.90;;;;;;5036536;28;20021;-75
2023/07/20 09:34:28;;;;;;;1.60;1.50;;;25.30;63.30;;;;;;5030401;28;20041;-73
2023/07/20 09:36:53;;;;;;;1.02;0.98;;;25.60;87.40;;;;;;5049459;28;20033;-73
2023/07/20 09:39:20;;;;;;;1.30;0.93;;;25.90;35.40;;;;;;5033444;28;20029;-73
2023/07/20 09:41:45;;;;;;;1.35;0.70;;;26.20;15.10;;;;;;5036562;28;20029;-73
2023/07/20 09:44:11;;;;;;;1.38;0.70;;;26.20;65.30;;;;;;5030833;28;20040;-72
2023/07/20 09:46:54;;;;;;;1.40;1.02;;;24.90;99.90;;;;;;5034783;28;20033;-72
2023/07/20 09:49:19;;;;;;;0.95;0.95;;;24.40;99.90;;;;;;5036176;28;20111;-73
2023/07/20 09:51:46;;;;;;;3.22;1.02;;;24.90;99.90;;;;;;5036850;28;20072;-72
2023/07/20 09:54:13;;;;;;;1.83;0.80;;;24.60;99.90;;;;;;5032924;28;20075;-72
2023/07/20 09:56:40;;;;;;;2.42;0.98;;;24.90;99.90;;;;;;5036122;28;20395;-74
2023/07/20 09:59:06;;;;;;;2.20;0.90;;;24.60;99.90;;;;;;5034497;28;20029;-73
2023/07/20 10:01:32;;;;;;;1.35;0.80;;;24.30;99.90;;;;;;5031640;28;20074;-73
2023/07/20 10:04:01;;;;;;;1.65;0.68;;;24.20;99.90;;;;;;5027825;28;20493;-73
2023/07/20 10:06:29;;;;;;;1.45;0.70;;;24.40;99.90;;;;;;5034758;28;20030;-74
2023/07/20 10:08:59;;;;;;;1.70;0.73;;;25.40;99.90;;;;;;5033524;28;20021;-73
2023/07/20 10:11:29;;;;;;;2.33;0.73;;;25.60;99.90;;;;;;5041993;28;20049;-73
2023/07/20 10:13:58;;;;;;;3.28;0.90;;;25.40;99.00;;;;;;5036686;28;20508;-73
2023/07/20 10:16:31;;;;;;;1.02;0.77;;;25.10;99.90;;;;;;5037646;28;20033;-73
2023/07/20 10:19:24;;;;;;;1.35;0.60;;;24.20;99.90;;;;;;5040370;28;20033;-73
2023/07/20 10:21:57;;;;;;;0.85;0.82;;;22.90;99.90;;;;;;5039283;28;20110;-73
2023/07/20 10:24:24;;;;;;;2.97;0.82;;;22.30;99.90;;;;;;5026484;28;20582;-73
2023/07/20 10:26:51;;;;;;;2.70;0.82;;;22.90;99.90;;;;;;5031788;28;20091;-73
2023/07/20 10:29:17;;;;;;;0.60;0.60;;;24.10;99.90;;;;;;5046005;28;20025;-73
2023/07/20 10:31:43;;;;;;;1.25;0.70;;;24.60;92.50;;;;;;5039552;28;20037;-73
2023/07/20 10:34:10;;;;;;;0.73;0.73;;;25.50;99.90;;;;;;5031874;28;20022;-73
2023/07/20 10:36:46;;;;;;;1.75;0.77;;;25.20;99.90;;;;;;5034330;28;20103;-74
2023/07/20 10:39:24;;;;;;;0.85;0.82;;;24.70;99.90;;;;;;5017842;28;20041;-74
2023/07/20 10:41:50;;;;;;;2.63;0.70;;;23.80;99.90;;;;;;5038283;28;20053;-74
2023/07/20 10:44:20;;;;;;;0.95;0.80;;;23.90;99.90;;;;;;5034397;28;20503;-74
2023/07/20 10:46:47;;;;;;;1.98;0.60;;;24.50;99.90;;;;;;5031389;28;20033;-73
2023/07/20 10:49:15;;;;;;;1.52;0.75;;;25.40;99.90;;;;;;5028659;28;20032;-73
2023/07/20 10:51:43;;;;;;;1.92;1.73;;;25.70;72.10;;;;;;5033127;28;20029;-74
2023/07/20 10:54:19;;;;;;;1.23;0.80;;;26.60;24.20;;;;;;5032403;28;20032;-74
2023/07/20 10:56:47;;;;;;;1.75;0.80;;;26.30;1.00;;;;;;5034654;28;20490;-74
2023/07/20 11:02:12;;;;;;;3.33;0.60;;;25.20;48.10;;;;;;5106488;27;20398;-74
2023/07/20 11:04:42;;;;;;;2.03;0.82;;;24.50;16.50;;;;;;5090038;28;20039;-74
2023/07/20 11:07:08;;;;;;;2.97;0.82;;;24.00;99.90;;;;;;5089096;28;20021;-73
2023/07/20 11:09:35;;;;;;;0.85;0.70;;;24.30;99.90;;;;;;5092712;28;20036;-75
2023/07/20 11:12:17;;;;;;;1.20;0.70;;;24.40;99.90;;;;;;5097994;28;20028;-74
2023/07/20 11:14:54;;;;;;;4.47;0.80;;;24.60;99.90;;;;;;5090759;28;20028;-73
2023/07/20 11:17:22;;;;;;;2.28;0.68;;;24.60;99.90;;;;;;5088022;28;20474;-74
2023/07/20 11:19:49;;;;;;;6.88;0.80;;;24.30;99.90;;;;;;5103195;28;20378;-73
2023/07/20 11:22:17;;;;;;;0.60;0.57;;;24.20;99.90;;;;;;5095421;28;20024;-73
2023/07/20 11:24:43;;;;;;;0.70;0.47;;;24.10;96.80;;;;;;5088557;28;20115;-73
2023/07/20 11:27:08;;;;;;;0.80;0.55;;;24.50;80.60;;;;;;5089058;28;20115;-74
2023/07/20 11:29:36;;;;;;;0.80;0.45;;;24.30;27.70;;;;;;5089714;28;20363;-72
2023/07/20 11:32:03;;;;;;;0.60;0.57;;;23.80;99.90;;;;;;5090265;28;20032;-73
2023/07/20 11:34:30;;;;;;;1.17;0.70;;;24.20;99.90;;;;;;5089608;28;20032;-73
2023/07/20 11:36:56;;;;;;;0.85;0.75;;;23.80;99.90;;;;;;5088463;28;20636;-73
2023/07/20 11:39:25;;;;;;;0.60;0.60;;;23.40;99.90;;;;;;5088022;28;20064;-73
2023/07/20 11:41:53;;;;;;;1.15;0.68;;;24.00;99.90;;;;;;5095439;28;20119;-73
2023/07/20 11:44:29;;;;;;;1.38;0.40;;;23.90;2.80;;;;;;5089829;28;20552;-73
2023/07/20 11:47:14;;;;;;;1.90;0.70;;;23.60;18.20;;;;;;5089575;28;20028;-73
2023/07/20 11:49:41;;;;;;;1.40;0.50;;;22.60;56.80;;;;;;5085569;28;20028;-73
2023/07/20 11:52:09;;;;;;;0.75;0.57;;;22.60;99.90;;;;;;5089280;28;20039;-73
2023/07/20 11:54:35;;;;;;;1.25;0.47;;;23.20;95.20;;;;;;5089142;28;20154;-73
2023/07/20 11:57:01;;;;;;;0.60;0.45;;;23.60;86.00;;;;;;5090069;28;20110;-74
2023/07/20 11:59:27;;;;;;;0.80;0.63;;;23.80;36.50;;;;;;5088921;28;20032;-72
2023/07/20 12:01:53;;;;;;;0.98;0.88;;;24.10;18.60;;;;;;5096848;28;20089;-72
2023/07/20 12:04:19;;;;;;;1.55;0.60;;;24.10;8.60;;;;;;5086450;28;20067;-75
2023/07/20 12:06:46;;;;;;;1.10;0.50;;;24.40;21.90;;;;;;5087887;28;20032;-74
2023/07/20 12:09:15;;;;;;;0.52;0.52;;;24.00;1.00;;;;;;5086745;28;20503;-71
2023/07/20 12:11:43;;;;;;;1.92;0.60;;;24.30;30.70;;;;;;5098428;28;20047;-73
2023/07/20 12:14:09;;;;;;;0.50;0.50;;;24.30;1.00;;;;;;5075566;28;20038;-72
2023/07/20 12:16:37;;;;;;;1.95;0.90;;;24.50;19.30;;;;;;5072418;28;20497;-73
2023/07/20 12:19:06;;;;;;;0.70;0.70;;;24.10;11.60;;;;;;5072818;28;20033;-74
2023/07/20 12:21:35;;;;;;;0.60;0.50;;;24.10;39.60;;;;;;5067007;28;20255;-73
2023/07/20 12:24:00;;;;;;;0.93;0.55;;;23.80;1.20;;;;;;5077933;28;20095;-73
2023/07/20 12:26:28;;;;;;;5.00;0.90;;;24.50;99.00;;;;;;5073553;28;20116;-73
2023/07/20 12:28:54;;;;;;;0.77;0.77;;;24.10;1.00;;;;;;5072015;28;20060;-73
2023/07/20 12:31:23;;;;;;;3.10;0.77;;;23.60;1.00;;;;;;5069424;28;20047;-73
2023/07/20 12:33:51;;;;;;;1.15;0.65;;;23.40;6.40;;;;;;5070187;28;20032;-74
2023/07/20 12:36:18;;;;;;;0.90;0.70;;;22.90;39.70;;;;;;5076998;28;20033;-73
2023/07/20 12:38:43;;;;;;;2.85;0.82;;;23.10;30.00;;;;;;5071692;28;20364;-73
2023/07/20 12:41:14;;;;;;;1.13;0.70;;;23.50;23.00;;;;;;5074743;28;20498;-74